createdAt,value
2023-01-29T00:01:16.781Z,-1.52
2023-01-29T00:03:48.157Z,-1.49
2023-01-29T00:06:17.478Z,-1.50
2023-01-29T00:08:51.984Z,-1.51
2023-01-29T00:11:23.646Z,-1.60
2023-01-29T00:13:53.043Z,-1.53
2023-01-29T00:16:22.459Z,-1.54
2023-01-29T00:18:53.564Z,-1.65
2023-01-29T00:23:59.752Z,-1.60
2023-01-29T00:26:29.821Z,-1.58
2023-01-29T00:29:04.769Z,-1.55
2023-01-29T00:31:34.415Z,-1.61
2023-01-29T00:34:05.627Z,-1.54
2023-01-29T00:36:34.963Z,-1.72
2023-01-29T00:39:10.331Z,-1.81
2023-01-29T00:41:58.191Z,-1.87
2023-01-29T00:44:41.225Z,-1.85
2023-01-29T00:47:30.380Z,-1.96
2023-01-29T00:50:12.147Z,-1.96
2023-01-29T00:52:42.996Z,-1.99
2023-01-29T00:57:48.359Z,-2.12
2023-01-29T01:00:19.942Z,-2.12
2023-01-29T01:03:02.044Z,-2.15
2023-01-29T01:05:33.340Z,-2.33
2023-01-29T01:08:34.801Z,-2.21
2023-01-29T01:11:04.523Z,-2.17
2023-01-29T01:13:40.326Z,-2.16
2023-01-29T01:16:12.383Z,-2.22
2023-01-29T01:18:42.867Z,-2.19
2023-01-29T01:21:14.032Z,-2.18
2023-01-29T01:23:51.584Z,-2.19
2023-01-29T01:26:20.992Z,-2.28
2023-01-29T01:28:50.082Z,-2.29
2023-01-29T01:31:19.759Z,-2.46
2023-01-29T01:33:50.938Z,-2.29
2023-01-29T01:36:27.250Z,-2.17
2023-01-29T01:39:01.430Z,-2.21
2023-01-29T01:41:32.309Z,-2.23
2023-01-29T01:44:03.241Z,-2.34
2023-01-29T01:46:34.169Z,-2.36
2023-01-29T01:49:07.351Z,-2.40
2023-01-29T01:51:42.719Z,-2.50
2023-01-29T01:54:15.946Z,-2.62
2023-01-29T01:56:55.078Z,-2.50
2023-01-29T01:59:25.814Z,-2.57
2023-01-29T02:01:56.386Z,-2.59
2023-01-29T02:04:41.380Z,-2.67
2023-01-29T02:07:30.963Z,-2.58
2023-01-29T02:10:07.453Z,-2.87
2023-01-29T02:12:38.585Z,-2.75
2023-01-29T02:15:10.080Z,-2.72
2023-01-29T02:17:45.328Z,-2.66
2023-01-29T02:20:23.864Z,-2.85
2023-01-29T02:23:32.978Z,-2.95
2023-01-29T02:26:17.252Z,-3.19
2023-01-29T02:28:53.012Z,-2.93
2023-01-29T02:31:30.324Z,-2.98
2023-01-29T02:34:10.949Z,-3.00
2023-01-29T02:36:47.397Z,-3.06
2023-01-29T02:39:27.159Z,-3.10
2023-01-29T02:42:03.428Z,-3.06
2023-01-29T02:44:41.355Z,-3.02
2023-01-29T02:47:21.612Z,-2.97
2023-01-29T02:49:59.942Z,-3.08
2023-01-29T02:52:38.773Z,-3.11
2023-01-29T02:55:14.763Z,-2.92
2023-01-29T02:57:48.152Z,-2.89
2023-01-29T03:00:23.156Z,-2.85
2023-01-29T03:02:58.173Z,-2.72
2023-01-29T03:05:32.906Z,-2.75
2023-01-29T03:08:12.780Z,-2.79
2023-01-29T03:13:32.002Z,-2.68
2023-01-29T03:16:09.140Z,-2.68
2023-01-29T03:18:55.388Z,-2.70
2023-01-29T03:21:44.736Z,-2.71
2023-01-29T03:24:29.775Z,-2.71
2023-01-29T03:27:17.777Z,-2.68
2023-01-29T03:30:03.353Z,-2.67
2023-01-29T03:35:49.993Z,-2.66
2023-01-29T03:38:34.190Z,-2.72
2023-01-29T03:41:09.731Z,-2.80
2023-01-29T03:43:47.450Z,-2.76
2023-01-29T03:46:22.831Z,-2.72
2023-01-29T03:49:01.438Z,-2.67
2023-01-29T03:51:36.053Z,-2.64
2023-01-29T03:54:12.507Z,-2.70
2023-01-29T03:56:52.302Z,-2.57
2023-01-29T03:59:33.342Z,-2.62
2023-01-29T04:02:32.191Z,-2.60
2023-01-29T04:08:10.569Z,-2.59
2023-01-29T04:13:25.883Z,-2.66
2023-01-29T04:16:00.105Z,-2.65
2023-01-29T04:18:55.835Z,-2.63
2023-01-29T04:21:33.961Z,-2.57
2023-01-29T04:24:04.311Z,-2.56
2023-01-29T04:26:57.436Z,-2.53
2023-01-29T04:29:42.255Z,-2.51
2023-01-29T04:32:27.699Z,-2.62
2023-01-29T04:35:07.388Z,-2.43
2023-01-29T04:37:45.118Z,-2.39
2023-01-29T04:40:26.223Z,-2.37
2023-01-29T04:46:01.090Z,-2.36
2023-01-29T04:48:35.730Z,-2.36
2023-01-29T04:51:12.486Z,-2.39
2023-01-29T04:53:52.156Z,-2.36
2023-01-29T04:56:27.856Z,-2.44
2023-01-29T04:59:01.606Z,-2.53
2023-01-29T05:01:34.044Z,-2.48
2023-01-29T05:04:06.477Z,-2.36
2023-01-29T05:06:42.056Z,-2.40
2023-01-29T05:09:15.631Z,-2.39
2023-01-29T05:11:47.258Z,-2.42
2023-01-29T05:14:20.089Z,-2.40
2023-01-29T05:16:53.903Z,-2.45
2023-01-29T05:19:23.080Z,-2.37
2023-01-29T05:21:55.676Z,-2.40
2023-01-29T05:24:28.753Z,-2.41
2023-01-29T05:27:15.943Z,-2.45
2023-01-29T05:29:47.695Z,-2.40
2023-01-29T05:32:21.884Z,-2.40
2023-01-29T05:34:50.917Z,-2.39
2023-01-29T05:37:20.314Z,-2.39
2023-01-29T05:39:51.899Z,-2.34
2023-01-29T05:42:27.064Z,-2.36
2023-01-29T05:45:01.601Z,-2.37
2023-01-29T05:50:14.281Z,-2.38
2023-01-29T05:52:48.793Z,-2.31
2023-01-29T05:55:22.361Z,-2.25
2023-01-29T05:57:51.594Z,-2.26
2023-01-29T06:00:21.615Z,-2.45
2023-01-29T06:02:51.033Z,-2.31
2023-01-29T06:05:20.167Z,-2.31
2023-01-29T06:07:49.395Z,-2.32
2023-01-29T06:10:20.834Z,-2.38
2023-01-29T06:12:50.436Z,-2.40
2023-01-29T06:15:19.961Z,-2.41
2023-01-29T06:17:55.885Z,-2.42
2023-01-29T06:20:26.095Z,-2.39
2023-01-29T06:22:55.145Z,-2.53
2023-01-29T06:25:26.382Z,-2.43
2023-01-29T06:27:58.404Z,-2.37
2023-01-29T06:30:28.976Z,-2.41
2023-01-29T06:32:58.441Z,-2.46
2023-01-29T06:35:27.933Z,-2.32
2023-01-29T06:38:03.507Z,-2.29
2023-01-29T06:40:34.642Z,-2.31
2023-01-29T06:43:03.819Z,-2.26
2023-01-29T06:45:33.076Z,-2.37
2023-01-29T06:48:02.490Z,-2.24
2023-01-29T06:50:31.710Z,-2.17
2023-01-29T06:53:01.384Z,-2.13
2023-01-29T06:55:35.502Z,-2.11
2023-01-29T06:58:09.310Z,-2.09
2023-01-29T07:00:41.214Z,-2.26
2023-01-29T07:03:15.222Z,-2.12
2023-01-29T07:05:44.533Z,-2.15
2023-01-29T07:08:13.588Z,-2.16
2023-01-29T07:10:42.775Z,-2.14
2023-01-29T07:13:14.417Z,-2.14
2023-01-29T07:15:44.081Z,-2.16
2023-01-29T07:18:13.789Z,-2.11
2023-01-29T07:20:44.802Z,-2.13
2023-01-29T07:23:15.579Z,-2.13
2023-01-29T07:25:50.010Z,-2.04
2023-01-29T07:28:22.296Z,-1.96
2023-01-29T07:33:32.037Z,-1.71
2023-01-29T07:36:06.488Z,-1.80
2023-01-29T07:38:35.984Z,-1.64
2023-01-29T07:41:05.365Z,-1.64
2023-01-29T07:43:36.677Z,-1.54
2023-01-29T07:46:06.663Z,-1.47
2023-01-29T07:48:46.473Z,-1.42
2023-01-29T07:51:17.697Z,-1.56
2023-01-29T07:53:47.471Z,-1.58
2023-01-29T07:56:16.898Z,-1.52
2023-01-29T07:58:48.220Z,-1.46
2023-01-29T08:01:17.452Z,-1.35
2023-01-29T08:03:46.635Z,-1.32
2023-01-29T08:06:15.967Z,-1.26
2023-01-29T08:08:45.160Z,-1.23
2023-01-29T08:11:14.921Z,-1.26
2023-01-29T08:13:44.270Z,-1.10
2023-01-29T08:16:15.554Z,-1.07
2023-01-29T08:18:56.524Z,-1.02
2023-01-29T08:21:31.788Z,-0.94
2023-01-29T08:26:51.063Z,-0.91
2023-01-29T08:29:25.643Z,-0.85
2023-01-29T08:31:56.948Z,-0.73
2023-01-29T08:34:26.553Z,-0.72
2023-01-29T08:36:55.706Z,-0.76
2023-01-29T08:39:35.244Z,-0.81
2023-01-29T08:42:07.522Z,-0.66
2023-01-29T08:44:37.054Z,-0.50
2023-01-29T08:47:08.399Z,-0.52
2023-01-29T08:49:38.222Z,-0.51
2023-01-29T08:52:07.490Z,-0.53
2023-01-29T08:54:36.792Z,-0.46
2023-01-29T08:57:06.595Z,-0.46
2023-01-29T08:59:35.927Z,-0.49
2023-01-29T09:02:05.288Z,-0.75
2023-01-29T09:04:41.640Z,-0.50
2023-01-29T09:07:10.932Z,-0.59
2023-01-29T09:09:40.204Z,-0.62
2023-01-29T09:12:19.300Z,-0.72
2023-01-29T09:14:48.699Z,-0.53
2023-01-29T09:17:17.958Z,-0.57
2023-01-29T09:19:59.431Z,-0.54
2023-01-29T09:22:28.891Z,-0.47
2023-01-29T09:24:58.021Z,-0.40
2023-01-29T09:27:28.827Z,-0.50
2023-01-29T09:29:58.191Z,-0.42
2023-01-29T09:32:55.493Z,-0.54
2023-01-29T09:35:21.271Z,-0.66
2023-01-29T09:37:55.481Z,-0.76
2023-01-29T09:40:29.094Z,-0.86
2023-01-29T09:43:08.309Z,-1.06
2023-01-29T09:45:40.834Z,-0.83
2023-01-29T09:48:14.743Z,-0.88
2023-01-29T09:50:50.042Z,-0.84
2023-01-29T09:53:22.925Z,-0.69
2023-01-29T09:55:59.151Z,-0.61
2023-01-29T09:58:33.567Z,-0.67
2023-01-29T10:01:13.996Z,-0.63
2023-01-29T10:07:00.987Z,-0.75
2023-01-29T10:09:54.071Z,-0.63
2023-01-29T10:12:39.411Z,-0.67
2023-01-29T10:15:25.550Z,-0.74
2023-01-29T10:18:24.340Z,-0.70
2023-01-29T10:21:05.295Z,-0.82
2023-01-29T10:23:39.743Z,-1.14
2023-01-29T10:26:12.688Z,-0.94
2023-01-29T10:28:45.934Z,-0.96
2023-01-29T10:31:20.624Z,-0.89
2023-01-29T10:34:02.143Z,-0.82
2023-01-29T10:36:41.992Z,-0.76
2023-01-29T10:39:20.133Z,-0.67
2023-01-29T10:42:06.510Z,-0.54
2023-01-29T10:44:48.950Z,-0.57
2023-01-29T10:48:05.339Z,-0.51
2023-01-29T10:50:47.422Z,-0.50
2023-01-29T10:53:38.625Z,-0.58
2023-01-29T10:56:23.663Z,-0.62
2023-01-29T10:58:56.986Z,-0.52
2023-01-29T11:01:26.942Z,-0.56
2023-01-29T11:04:02.764Z,-0.53
2023-01-29T11:06:34.027Z,-0.53
2023-01-29T11:09:11.910Z,-0.64
2023-01-29T11:11:48.261Z,-0.68
2023-01-29T11:14:24.633Z,-0.74
2023-01-29T11:16:59.165Z,-0.79
2023-01-29T11:19:39.874Z,-0.77
2023-01-29T11:22:17.191Z,-1.09
2023-01-29T11:25:10.898Z,-1.07
2023-01-29T11:27:47.123Z,-0.96
2023-01-29T11:30:30.589Z,-0.89
2023-01-29T11:33:09.923Z,-0.75
2023-01-29T11:35:42.584Z,-0.67
2023-01-29T11:38:23.279Z,-0.82
2023-01-29T11:40:52.994Z,-0.87
2023-01-29T11:43:31.083Z,-0.77
2023-01-29T11:46:04.630Z,-0.75
2023-01-29T11:48:43.866Z,-0.71
2023-01-29T11:51:22.273Z,-0.74
2023-01-29T11:53:55.711Z,-0.69
2023-01-29T11:56:28.985Z,-0.76
2023-01-29T11:59:03.912Z,-0.67
2023-01-29T12:01:40.524Z,-0.89
2023-01-29T12:04:20.852Z,-0.87
2023-01-29T12:06:57.703Z,-0.90
2023-01-29T12:09:31.750Z,-0.94
2023-01-29T12:12:19.805Z,-0.97
2023-01-29T12:15:06.588Z,-1.01
2023-01-29T12:17:40.007Z,-0.99
2023-01-29T12:20:17.181Z,-1.17
2023-01-29T12:22:53.920Z,-1.33
2023-01-29T12:25:27.922Z,-1.23
2023-01-29T12:28:02.627Z,-1.29
2023-01-29T12:30:42.422Z,-1.27
2023-01-29T12:33:17.196Z,-1.26
2023-01-29T12:35:53.031Z,-1.27
2023-01-29T12:38:26.291Z,-1.24
2023-01-29T12:40:59.463Z,-1.19
2023-01-29T12:43:38.345Z,-1.16
2023-01-29T12:53:56.733Z,-1.62
2023-01-29T12:56:36.572Z,-1.66
2023-01-29T12:59:17.180Z,-1.62
2023-01-29T13:01:52.760Z,-1.66
2023-01-29T13:04:31.175Z,-1.78
2023-01-29T13:07:10.593Z,-1.65
2023-01-29T13:09:48.601Z,-1.59
2023-01-29T13:12:20.444Z,-1.55
2023-01-29T13:14:58.235Z,-1.62
2023-01-29T13:17:32.299Z,-1.72
2023-01-29T13:20:07.069Z,-1.79
2023-01-29T13:22:38.952Z,-1.96
2023-01-29T13:25:14.394Z,-1.68
2023-01-29T13:27:47.264Z,-1.78
2023-01-29T13:30:31.981Z,-1.82
2023-01-29T13:33:10.785Z,-1.86
2023-01-29T13:35:42.951Z,-2.04
2023-01-29T13:38:26.536Z,-1.98
2023-01-29T13:41:03.346Z,-1.92
2023-01-29T13:43:38.485Z,-2.11
2023-01-29T13:46:12.762Z,-1.94
2023-01-29T13:48:46.292Z,-1.89
2023-01-29T13:51:26.572Z,-1.91
2023-01-29T13:54:02.645Z,-1.99
2023-01-29T13:56:49.485Z,-1.91
2023-01-29T13:59:26.977Z,-2.01
2023-01-29T14:02:06.130Z,-1.88
2023-01-29T14:04:41.200Z,-1.98
2023-01-29T14:07:49.356Z,-1.94
2023-01-29T14:10:21.394Z,-1.94
2023-01-29T14:12:53.571Z,-1.81
2023-01-29T14:15:25.566Z,-1.84
2023-01-29T14:18:23.105Z,-1.91
2023-01-29T14:21:00.187Z,-1.92
2023-01-29T14:23:48.218Z,-1.88
2023-01-29T14:26:27.962Z,-1.94
2023-01-29T14:29:06.459Z,-1.95
2023-01-29T14:31:43.386Z,-2.06
2023-01-29T14:34:32.003Z,-1.98
2023-01-29T14:37:05.765Z,-2.03
2023-01-29T14:39:38.675Z,-2.14
2023-01-29T14:42:22.911Z,-1.94
2023-01-29T14:45:23.102Z,-1.93
2023-01-29T14:48:11.589Z,-2.04
2023-01-29T14:50:52.493Z,-2.06
2023-01-29T14:53:35.044Z,-2.04
2023-01-29T14:56:11.908Z,-2.06
2023-01-29T14:58:45.585Z,-1.92
2023-01-29T15:01:24.995Z,-1.91
2023-01-29T15:04:00.525Z,-1.94
2023-01-29T15:06:35.477Z,-1.88
2023-01-29T15:09:21.088Z,-1.88
2023-01-29T15:12:00.953Z,-1.81
2023-01-29T15:14:36.067Z,-1.84
2023-01-29T15:17:20.324Z,-1.78
2023-01-29T15:19:50.898Z,-1.96
2023-01-29T15:22:21.183Z,-1.71
2023-01-29T15:25:04.807Z,-1.83
2023-01-29T15:27:34.163Z,-1.77
2023-01-29T15:30:07.731Z,-1.73
2023-01-29T15:32:46.639Z,-1.67
2023-01-29T15:35:29.627Z,-1.73
2023-01-29T15:38:04.293Z,-1.68
2023-01-29T15:40:43.324Z,-1.71
2023-01-29T15:43:22.861Z,-1.66
2023-01-29T15:45:53.317Z,-1.71
2023-01-29T15:48:32.939Z,-1.74
2023-01-29T15:51:04.352Z,-1.77
2023-01-29T15:53:38.759Z,-1.77
2023-01-29T15:56:14.517Z,-1.78
2023-01-29T15:58:45.590Z,-1.81
2023-01-29T16:01:20.475Z,-1.83
2023-01-29T16:03:59.445Z,-2.13
2023-01-29T16:06:29.417Z,-1.89
2023-01-29T16:08:59.515Z,-1.90
2023-01-29T16:11:28.942Z,-1.86
2023-01-29T16:13:59.360Z,-2.02
2023-01-29T16:16:29.796Z,-1.91
2023-01-29T16:19:06.169Z,-1.89
2023-01-29T16:21:43.283Z,-1.92
2023-01-29T16:24:16.252Z,-1.89
2023-01-29T16:26:53.440Z,-1.94
2023-01-29T16:29:25.897Z,-2.01
2023-01-29T16:32:01.326Z,-2.01
2023-01-29T16:34:37.001Z,-2.12
2023-01-29T16:37:08.841Z,-2.19
2023-01-29T16:39:45.340Z,-2.07
2023-01-29T16:42:40.397Z,-1.98
2023-01-29T16:45:28.020Z,-2.06
2023-01-29T16:48:24.092Z,-2.09
2023-01-29T16:51:06.017Z,-2.19
2023-01-29T16:53:40.567Z,-2.15
2023-01-29T16:56:10.727Z,-2.23
2023-01-29T16:58:40.020Z,-2.36
2023-01-29T17:01:12.339Z,-2.41
2023-01-29T17:03:43.281Z,-2.35
2023-01-29T17:06:20.985Z,-2.48
2023-01-29T17:08:50.918Z,-2.31
2023-01-29T17:11:28.649Z,-2.28
2023-01-29T17:13:58.764Z,-2.29
2023-01-29T17:16:31.139Z,-2.28
2023-01-29T17:19:00.902Z,-2.27
2023-01-29T17:21:32.614Z,-2.44
2023-01-29T17:24:02.204Z,-2.37
2023-01-29T17:26:33.485Z,-2.35
2023-01-29T17:29:02.774Z,-2.32
2023-01-29T17:31:32.218Z,-2.30
2023-01-29T17:34:13.817Z,-2.39
2023-01-29T17:36:45.816Z,-2.69
2023-01-29T17:39:20.347Z,-2.33
2023-01-29T17:41:51.922Z,-2.29
2023-01-29T17:44:21.555Z,-2.30
2023-01-29T17:46:50.928Z,-2.31
2023-01-29T17:49:26.434Z,-2.35
2023-01-29T17:51:58.903Z,-2.28
2023-01-29T17:54:28.446Z,-2.30
2023-01-29T17:56:58.129Z,-2.32
2023-01-29T17:59:30.603Z,-2.22
2023-01-29T18:02:04.997Z,-2.28
2023-01-29T18:04:34.243Z,-2.29
2023-01-29T18:07:06.708Z,-2.27
2023-01-29T18:09:36.567Z,-2.33
2023-01-29T18:12:07.634Z,-2.23
2023-01-29T18:14:36.951Z,-2.24
2023-01-29T18:17:06.087Z,-2.27
2023-01-29T18:19:35.400Z,-2.28
2023-01-29T18:22:06.512Z,-2.28
2023-01-29T18:24:35.744Z,-2.19
2023-01-29T18:27:04.791Z,-2.31
2023-01-29T18:29:34.497Z,-2.20
2023-01-29T18:32:03.853Z,-2.18
2023-01-29T18:34:32.975Z,-2.28
2023-01-29T18:37:02.166Z,-2.21
2023-01-29T18:39:33.391Z,-2.23
2023-01-29T18:42:02.626Z,-2.21
2023-01-29T18:44:31.829Z,-2.31
2023-01-29T18:47:01.008Z,-2.26
2023-01-29T18:49:30.234Z,-2.28
2023-01-29T18:51:59.524Z,-2.18
2023-01-29T18:54:29.084Z,-2.20
2023-01-29T18:57:09.320Z,-2.21
2023-01-29T18:59:45.092Z,-2.19
2023-01-29T19:02:22.363Z,-2.20
2023-01-29T19:04:56.710Z,-2.21
2023-01-29T19:07:26.118Z,-2.19
2023-01-29T19:09:55.337Z,-2.16
2023-01-29T19:12:26.818Z,-2.26
2023-01-29T19:14:56.039Z,-2.15
2023-01-29T19:17:25.271Z,-2.18
2023-01-29T19:19:56.131Z,-2.39
2023-01-29T19:22:25.179Z,-2.29
2023-01-29T19:24:54.467Z,-2.28
2023-01-29T19:27:29.887Z,-2.25
2023-01-29T19:29:59.399Z,-2.24
2023-01-29T19:32:29.667Z,-2.24
2023-01-29T19:35:04.033Z,-2.27
2023-01-29T19:37:33.538Z,-2.28
2023-01-29T19:42:46.286Z,-2.43
2023-01-29T19:45:49.673Z,-2.26
2023-01-29T19:48:16.564Z,-2.22
2023-01-29T19:51:01.609Z,-2.22
2023-01-29T19:53:35.045Z,-2.18
2023-01-29T19:56:12.141Z,-2.14
2023-01-29T19:58:45.780Z,-2.15
2023-01-29T20:01:22.181Z,-2.16
2023-01-29T20:03:51.736Z,-2.14
2023-01-29T20:06:28.274Z,-2.30
2023-01-29T20:08:57.792Z,-2.12
2023-01-29T20:11:31.038Z,-2.12
2023-01-29T20:14:02.342Z,-2.07
2023-01-29T20:16:32.285Z,-2.20
2023-01-29T20:19:14.346Z,-2.15
2023-01-29T20:21:45.867Z,-2.18
2023-01-29T20:24:17.590Z,-2.17
2023-01-29T20:26:46.936Z,-2.15
2023-01-29T20:29:18.070Z,-2.12
2023-01-29T20:31:53.018Z,-2.09
2023-01-29T20:34:22.429Z,-2.04
2023-01-29T20:36:51.771Z,-2.01
2023-01-29T20:39:21.147Z,-2.06
2023-01-29T20:41:50.336Z,-2.03
2023-01-29T20:44:21.433Z,-2.22
2023-01-29T20:46:55.577Z,-1.98
2023-01-29T20:49:24.763Z,-1.95
2023-01-29T20:51:54.162Z,-1.99
2023-01-29T20:54:49.497Z,-1.95
2023-01-29T20:57:26.832Z,-2.00
2023-01-29T21:00:16.773Z,-1.95
2023-01-29T21:02:46.268Z,-1.94
2023-01-29T21:05:30.059Z,-1.95
2023-01-29T21:07:59.177Z,-1.91
2023-01-29T21:10:28.171Z,-1.89
2023-01-29T21:12:59.746Z,-1.94
2023-01-29T21:15:31.034Z,-1.93
2023-01-29T21:18:03.951Z,-1.96
2023-01-29T21:20:33.188Z,-1.95
2023-01-29T21:23:03.429Z,-1.96
2023-01-29T21:25:33.461Z,-1.95
2023-01-29T21:30:47.656Z,-2.12
2023-01-29T21:33:16.895Z,-2.01
2023-01-29T21:35:46.074Z,-1.98
2023-01-29T21:38:20.462Z,-1.97
2023-01-29T21:40:49.626Z,-1.99
2023-01-29T21:43:16.962Z,-1.94
2023-01-29T21:45:53.306Z,-1.89
2023-01-29T21:48:22.435Z,-1.90
2023-01-29T21:50:56.571Z,-1.88
2023-01-29T21:53:25.874Z,-1.89
2023-01-29T21:56:01.372Z,-1.90
2023-01-29T21:58:31.117Z,-1.94
2023-01-29T22:01:36.828Z,-1.90
2023-01-29T22:03:56.656Z,-1.96
2023-01-29T22:06:26.068Z,-1.95
2023-01-29T22:08:55.234Z,-1.98
2023-01-29T22:11:24.662Z,-2.04
2023-01-29T22:13:53.863Z,-1.99
2023-01-29T22:16:29.927Z,-1.94
2023-01-29T22:18:59.291Z,-1.92
2023-01-29T22:21:28.454Z,-1.96
2023-01-29T22:24:01.254Z,-1.93
2023-01-29T22:26:31.723Z,-1.95
2023-01-29T22:29:01.067Z,-1.94
2023-01-29T22:31:39.423Z,-1.91
2023-01-29T22:34:11.255Z,-1.88
2023-01-29T22:36:41.670Z,-1.89
2023-01-29T22:39:11.432Z,-1.93
2023-01-29T22:41:40.823Z,-2.00
2023-01-29T22:44:15.431Z,-2.09
2023-01-29T22:46:46.829Z,-2.01
2023-01-29T22:49:16.127Z,-2.08
2023-01-29T22:51:46.896Z,-2.13
2023-01-29T22:54:16.994Z,-2.18
2023-01-29T22:56:46.145Z,-2.46
2023-01-29T22:59:15.681Z,-2.32
2023-01-29T23:01:46.810Z,-2.22
2023-01-29T23:04:21.037Z,-2.15
2023-01-29T23:06:54.441Z,-2.29
2023-01-29T23:09:23.837Z,-2.09
2023-01-29T23:11:52.990Z,-2.09
2023-01-29T23:14:22.428Z,-2.13
2023-01-29T23:16:58.471Z,-2.15
2023-01-29T23:19:32.537Z,-2.16
2023-01-29T23:22:07.443Z,-2.33
2023-01-29T23:24:38.015Z,-2.12
2023-01-29T23:27:15.536Z,-2.16
2023-01-29T23:29:50.212Z,-2.15
2023-01-29T23:32:22.458Z,-2.13
2023-01-29T23:34:51.594Z,-2.18
2023-01-29T23:37:20.640Z,-2.18
2023-01-29T23:39:54.928Z,-2.16
2023-01-29T23:42:25.272Z,-2.16
2023-01-29T23:44:59.513Z,-2.09
2023-01-29T23:47:30.536Z,-2.19
2023-01-29T23:50:00.044Z,-2.24
2023-01-29T23:52:29.329Z,-2.23
2023-01-29T23:55:04.702Z,-2.26
2023-01-29T23:57:33.912Z,-2.31
